Kelsey 2 — D7BG — position and weather

sailwx.info

Track history (hours):
 
Tides and Currents Weather Stations Pressure Air Temp Water Temp Dewpoint Dewpoint Depression Visibility Wind Speed Wind Dir Waves Ship Positions

Kelsey 2

Last reported at 2017-Nov-07 23:22 UTC. Time now 2017-Nov-22 14:46 UTC.
Position N 01°15' E 104°05'.
Warning: this ship's position is 14 days out of date.

Length 121 m; draft 8 m.

Type: Tanker. MMSI: 440128000.

Date/timePositionNaut miles runAvg speedWind from/ knotsBaromVisibWave heightAir tempDewpointWater temp
2017-Nov-07 23:22N 01°15' E 104°05'512.1
2017-Nov-07 22:59N 01°14' E 104°00'612.1
2017-Nov-07 22:30N 01°12' E 103°55'611.5
2017-Nov-07 22:00N 01°10' E 103°49'611.4
2017-Nov-07 21:30N 01°06' E 103°45'612.0
2017-Nov-07 20:59N 01°03' E 103°40'612.6
2017-Nov-07 20:30N 01°05' E 103°34'4 8.4
2017-Nov-07 19:58N 01°09' E 103°34'510.5
2017-Nov-07 19:30N 01°12' E 103°38'3 5.4
2017-Nov-07 19:00N 01°14' E 103°39'1 2.9
2017-Nov-07 18:30N 01°14' E 103°38'0 0.0
2017-Nov-07 17:57N 01°14' E 103°38'0 0.0
2017-Nov-07 17:30N 01°14' E 103°38'0 0.0
2017-Nov-07 16:51N 01°14' E 103°38'0 0.0
2017-Nov-07 16:27N 01°14' E 103°38'0 0.0
2017-Nov-07 15:45N 01°14' E 103°38'0 0.0
2017-Nov-07 15:15N 01°14' E 103°38'0 0.0
2017-Nov-07 14:57N 01°14' E 103°38'0 0.0
2017-Nov-07 14:27N 01°14' E 103°38'0 0.0
2017-Nov-07 13:54N 01°14' E 103°38'0 0.0
2017-Nov-07 13:21N 01°14' E 103°38'0 0.0
2017-Nov-07 12:57N 01°14' E 103°38'0 0.0
2017-Nov-07 12:27N 01°14' E 103°38'0 0.0
2017-Nov-07 11:54N 01°14' E 103°38'0 0.0
2017-Nov-07 11:24N 01°14' E 103°38'0 0.1
2017-Nov-07 11:00N 01°14' E 103°38'0 0.1
2017-Nov-07 10:30N 01°14' E 103°38'0 0.2
2017-Nov-07 09:54N 01°14' E 103°38'0 0.0
2017-Nov-07 09:27N 01°14' E 103°38'0 0.0
2017-Nov-07 08:42N 01°14' E 103°38'0 0.1
2017-Nov-07 08:30N 01°14' E 103°38'0 0.1
2017-Nov-07 07:54N 01°14' E 103°38'0 0.0
2017-Nov-07 07:30N 01°14' E 103°38'0 0.1
2017-Nov-07 06:54N 01°14' E 103°38'0 0.1
2017-Nov-07 06:28N 01°14' E 103°38'1 2.9
2017-Nov-07 06:00N 01°14' E 103°39'2 4.1
2017-Nov-07 05:30N 01°12' E 103°40'3 6.1
2017-Nov-07 05:00N 01°10' E 103°42'5 9.6
2017-Nov-07 04:30N 01°10' E 103°47'611.4
2017-Nov-07 04:00N 01°12' E 103°52'5 9.8
2017-Nov-07 03:30N 01°14' E 103°56'12 5.0
2017-Nov-07 01:10N 01°26' E 103°54'0 0.5
2017-Nov-07 00:59N 01°26' E 103°54'  
Track history (hours):
 
Tides and Currents Weather Stations Pressure Air Temp Water Temp Dewpoint Dewpoint Depression Visibility Wind Speed Wind Dir Waves Ship Positions

Kelsey 2

Last reported at 2017-Nov-07 23:22 UTC. Time now 2017-Nov-22 14:46 UTC.
Position N 01°15' E 104°05'.
Warning: this ship's position is 14 days out of date.

Length 121 m; draft 8 m.

Type: Tanker. MMSI: 440128000.

Date/timePositionNaut miles runAvg speedWind from/ knotsBaromVisibWave heightAir tempDewpointWater temp
2017-Nov-07 23:22N 01°15' E 104°05'512.1
2017-Nov-07 22:59N 01°14' E 104°00'612.1
2017-Nov-07 22:30N 01°12' E 103°55'611.5
2017-Nov-07 22:00N 01°10' E 103°49'611.4
2017-Nov-07 21:30N 01°06' E 103°45'612.0
2017-Nov-07 20:59N 01°03' E 103°40'612.6
2017-Nov-07 20:30N 01°05' E 103°34'4 8.4
2017-Nov-07 19:58N 01°09' E 103°34'510.5
2017-Nov-07 19:30N 01°12' E 103°38'3 5.4
2017-Nov-07 19:00N 01°14' E 103°39'1 2.9
2017-Nov-07 18:30N 01°14' E 103°38'0 0.0
2017-Nov-07 17:57N 01°14' E 103°38'0 0.0
2017-Nov-07 17:30N 01°14' E 103°38'0 0.0
2017-Nov-07 16:51N 01°14' E 103°38'0 0.0
2017-Nov-07 16:27N 01°14' E 103°38'0 0.0
2017-Nov-07 15:45N 01°14' E 103°38'0 0.0
2017-Nov-07 15:15N 01°14' E 103°38'0 0.0
2017-Nov-07 14:57N 01°14' E 103°38'0 0.0
2017-Nov-07 14:27N 01°14' E 103°38'0 0.0
2017-Nov-07 13:54N 01°14' E 103°38'0 0.0
2017-Nov-07 13:21N 01°14' E 103°38'0 0.0
2017-Nov-07 12:57N 01°14' E 103°38'0 0.0
2017-Nov-07 12:27N 01°14' E 103°38'0 0.0
2017-Nov-07 11:54N 01°14' E 103°38'0 0.0
2017-Nov-07 11:24N 01°14' E 103°38'0 0.1
2017-Nov-07 11:00N 01°14' E 103°38'0 0.1
2017-Nov-07 10:30N 01°14' E 103°38'0 0.2
2017-Nov-07 09:54N 01°14' E 103°38'0 0.0
2017-Nov-07 09:27N 01°14' E 103°38'0 0.0
2017-Nov-07 08:42N 01°14' E 103°38'0 0.1
2017-Nov-07 08:30N 01°14' E 103°38'0 0.1
2017-Nov-07 07:54N 01°14' E 103°38'0 0.0
2017-Nov-07 07:30N 01°14' E 103°38'0 0.1
2017-Nov-07 06:54N 01°14' E 103°38'0 0.1
2017-Nov-07 06:28N 01°14' E 103°38'1 2.9
2017-Nov-07 06:00N 01°14' E 103°39'2 4.1
2017-Nov-07 05:30N 01°12' E 103°40'3 6.1
2017-Nov-07 05:00N 01°10' E 103°42'5 9.6
2017-Nov-07 04:30N 01°10' E 103°47'611.4
2017-Nov-07 04:00N 01°12' E 103°52'5 9.8
2017-Nov-07 03:30N 01°14' E 103°56'12 5.0
2017-Nov-07 01:10N 01°26' E 103°54'0 0.5
2017-Nov-07 00:59N 01°26' E 103°54'  

Dump ship's entire track history